BAW255T EGLL-TBPB
Flight info
| Callsign | BAW255T |
|---|---|
| Flight time | N/A |
| Altitude | 34000 |
| Route | GASGU N514 ADKIK DCT JOZMA DCT ARKIL/M083F340 DCT SOMAX DCT 4830N02000W 44N030W 38N040W/M083F360 3330N04500W 28N050W 20N055W DCT FISST/N0476F360 DCT BGI |
| Aircraft | B77W/H-SDE1E2E3FGHIJ2J3J4J5M1RWXY/LB1D1 |
Departure
| Time | 2026-05-04 08:21 |
|---|---|
| Airport | London Heathrow Airport (EGLL) |
Arrival
| Time | N/A |
|---|---|
| Airport | Grantley Adams International Airport (TBPB) |
| Time | Latitude | Longitude | Altitude | Speed | Heading |
|---|---|---|---|---|---|
| 2026-05-04 07:42 | 51.47051 | -0.47734 | 98 ft | 0 kts | 90° |
| 2026-05-04 08:08 | 51.47088 | -0.47870 | 97 ft | 3 kts | 187° |
| 2026-05-04 08:08 | 51.47098 | -0.47869 | 98 ft | 0 kts | 180° |
| 2026-05-04 08:10 | 51.47107 | -0.47869 | 98 ft | 0 kts | 180° |
| 2026-05-04 08:12 | 51.47057 | -0.47869 | 98 ft | 13 kts | 180° |
| 2026-05-04 08:13 | 51.46964 | -0.47869 | 98 ft | 12 kts | 179° |
| 2026-05-04 08:13 | 51.46882 | -0.47869 | 98 ft | 11 kts | 180° |
| 2026-05-04 08:13 | 51.46805 | -0.47868 | 98 ft | 13 kts | 180° |
| 2026-05-04 08:13 | 51.46690 | -0.47857 | 98 ft | 17 kts | 158° |
| 2026-05-04 08:14 | 51.46654 | -0.47705 | 98 ft | 13 kts | 91° |
| 2026-05-04 08:14 | 51.46654 | -0.47562 | 97 ft | 12 kts | 90° |
| 2026-05-04 08:14 | 51.46655 | -0.47405 | 98 ft | 0 kts | 89° |
| 2026-05-04 08:16 | 51.46661 | -0.45985 | 97 ft | 16 kts | 90° |
| 2026-05-04 08:16 | 51.46662 | -0.45804 | 98 ft | 17 kts | 90° |
| 2026-05-04 08:16 | 51.46662 | -0.45577 | 98 ft | 22 kts | 91° |
| 2026-05-04 08:17 | 51.46663 | -0.45310 | 97 ft | 23 kts | 90° |
| 2026-05-04 08:17 | 51.46664 | -0.45061 | 97 ft | 21 kts | 89° |
| 2026-05-04 08:17 | 51.46665 | -0.44826 | 97 ft | 22 kts | 90° |
| 2026-05-04 08:17 | 51.46665 | -0.44516 | 98 ft | 29 kts | 90° |
| 2026-05-04 08:19 | 51.46495 | -0.43674 | 97 ft | 0 kts | 268° |
| 2026-05-04 08:20 | 51.46495 | -0.43675 | 97 ft | 0 kts | 268° |
| 2026-05-04 08:20 | 51.46493 | -0.43882 | 98 ft | 48 kts | 270° |
| 2026-05-04 08:20 | 51.46492 | -0.44793 | 98 ft | 114 kts | 269° |
| 2026-05-04 08:21 | 51.46486 | -0.46377 | 98 ft | 169 kts | 270° |
| 2026-05-04 08:21 | 51.46482 | -0.48337 | 538 ft | 182 kts | 272° |
| 2026-05-04 08:21 | 51.46493 | -0.50392 | 1217 ft | 188 kts | 272° |
| 2026-05-04 08:21 | 51.46423 | -0.52483 | 2002 ft | 190 kts | 266° |
| 2026-05-04 08:22 | 51.46331 | -0.54550 | 2599 ft | 192 kts | 271° |
| 2026-05-04 08:22 | 51.46304 | -0.56772 | 2844 ft | 208 kts | 271° |
| 2026-05-04 08:24 | 51.45399 | -0.76042 | 6607 ft | 285 kts | 269° |
| 2026-05-04 08:24 | 51.45369 | -0.79203 | 7386 ft | 288 kts | 269° |
| 2026-05-04 08:24 | 51.45318 | -0.82404 | 8178 ft | 290 kts | 263° |
| 2026-05-04 08:24 | 51.44712 | -0.85481 | 8923 ft | 291 kts | 237° |
| 2026-05-04 08:25 | 51.43367 | -0.87791 | 9657 ft | 292 kts | 212° |
| 2026-05-04 08:25 | 51.41606 | -0.88946 | 10336 ft | 294 kts | 189° |
| 2026-05-04 08:25 | 51.39578 | -0.89485 | 10981 ft | 299 kts | 194° |
| 2026-05-04 08:25 | 51.37541 | -0.90399 | 11516 ft | 309 kts | 195° |
| 2026-05-04 08:26 | 51.35458 | -0.91268 | 12217 ft | 313 kts | 194° |
| 2026-05-04 08:27 | 51.20480 | -0.98153 | 17049 ft | 333 kts | 214° |
| 2026-05-04 08:28 | 51.18657 | -1.00469 | 17724 ft | 335 kts | 223° |
| 2026-05-04 08:28 | 51.17098 | -1.03181 | 18336 ft | 339 kts | 231° |
| 2026-05-04 08:28 | 51.15660 | -1.06175 | 18963 ft | 342 kts | 232° |
| 2026-05-04 08:28 | 51.14210 | -1.09213 | 19611 ft | 344 kts | 232° |
| 2026-05-04 08:29 | 51.12758 | -1.12220 | 20230 ft | 347 kts | 231° |
| 2026-05-04 08:29 | 51.11285 | -1.15245 | 20808 ft | 350 kts | 231° |
| 2026-05-04 08:29 | 51.09784 | -1.18317 | 21406 ft | 352 kts | 231° |
| 2026-05-04 08:31 | 50.99646 | -1.40976 | 25066 ft | 372 kts | 248° |
| 2026-05-04 08:33 | 50.94758 | -1.69212 | 28110 ft | 387 kts | 251° |
| 2026-05-04 08:33 | 50.94059 | -1.73269 | 28530 ft | 389 kts | 251° |
| 2026-05-04 08:35 | 50.88864 | -2.03076 | 30332 ft | 427 kts | 251° |
| 2026-05-04 08:35 | 50.88059 | -2.07647 | 30343 ft | 438 kts | 251° |
| 2026-05-04 08:35 | 50.87231 | -2.12333 | 30355 ft | 449 kts | 251° |
| 2026-05-04 08:35 | 50.86379 | -2.17151 | 30452 ft | 459 kts | 251° |